createdAt,value
2023-01-30T00:00:15.507Z,4.90
2023-01-30T00:01:13.929Z,4.30
2023-01-30T00:02:13.941Z,4.40
2023-01-30T00:03:13.859Z,4.20
2023-01-30T00:04:16.827Z,4.10
2023-01-30T00:05:13.943Z,3.60
2023-01-30T00:06:13.860Z,3.80
2023-01-30T00:07:13.854Z,3.70
2023-01-30T00:08:14.353Z,3.70
2023-01-30T00:09:13.821Z,3.20
2023-01-30T00:10:13.835Z,3.40
2023-01-30T00:11:13.763Z,3.50
2023-01-30T00:12:14.403Z,3.60
2023-01-30T00:13:13.748Z,3.40
2023-01-30T00:14:13.783Z,3.60
2023-01-30T00:15:13.747Z,3.30
2023-01-30T00:16:14.480Z,3.80
2023-01-30T00:17:13.779Z,3.40
2023-01-30T00:18:14.588Z,3.40
2023-01-30T00:19:13.697Z,3.70
2023-01-30T00:20:15.741Z,3.60
2023-01-30T00:21:13.714Z,3.30
2023-01-30T00:22:13.713Z,3.40
2023-01-30T00:23:13.667Z,3.50
2023-01-30T00:24:22.267Z,3.70
2023-01-30T00:26:26.705Z,3.30
2023-01-30T00:27:26.353Z,3.80
2023-01-30T00:28:26.175Z,3.40
2023-01-30T00:29:26.151Z,3.40
2023-01-30T00:30:26.162Z,3.30
2023-01-30T00:31:27.885Z,3.30
2023-01-30T00:37:33.464Z,3.40
2023-01-30T00:38:35.664Z,3.40
2023-01-30T00:39:35.379Z,3.40
2023-01-30T00:40:34.496Z,2.80
2023-01-30T00:41:34.428Z,3.20
2023-01-30T00:42:34.467Z,3.10
2023-01-30T00:43:34.440Z,3.30
2023-01-30T00:44:34.430Z,3.10
2023-01-30T00:45:35.074Z,3.20
2023-01-30T00:46:35.858Z,3.10
2023-01-30T00:47:37.212Z,3.20
2023-01-30T00:48:36.603Z,3.40
2023-01-30T00:49:34.382Z,3.10
2023-01-30T00:50:36.114Z,3.10
2023-01-30T00:51:57.073Z,3.30
2023-01-30T00:52:34.929Z,3.20
2023-01-30T00:53:34.347Z,3.70
2023-01-30T00:54:34.345Z,3.20
2023-01-30T00:55:34.346Z,3.20
2023-01-30T00:56:34.276Z,3.10
2023-01-30T00:57:34.338Z,2.90
2023-01-30T00:58:34.319Z,3.00
2023-01-30T00:59:35.112Z,2.50
2023-01-30T01:00:36.238Z,2.90
2023-01-30T01:01:36.214Z,2.70
2023-01-30T01:02:36.182Z,2.60
2023-01-30T01:03:35.327Z,2.50
2023-01-30T01:04:59.916Z,2.60
2023-01-30T01:05:34.925Z,2.60
2023-01-30T01:06:34.213Z,2.30
2023-01-30T01:07:55.423Z,2.50
2023-01-30T01:08:36.537Z,2.70
2023-01-30T01:09:34.128Z,2.60
2023-01-30T01:10:37.063Z,2.40
2023-01-30T01:11:41.586Z,2.40
2023-01-30T01:12:34.102Z,2.30
2023-01-30T01:13:34.109Z,2.80
2023-01-30T01:14:34.062Z,2.80
2023-01-30T01:15:34.070Z,2.80
2023-01-30T01:16:34.682Z,3.00
2023-01-30T01:17:37.901Z,2.90
2023-01-30T01:18:34.033Z,2.90
2023-01-30T01:19:34.083Z,3.20
2023-01-30T01:20:34.896Z,3.00
2023-01-30T01:21:36.112Z,2.80
2023-01-30T01:22:35.163Z,2.60
2023-01-30T01:23:33.974Z,3.30
2023-01-30T01:50:09.121Z,1.50
2023-01-30T01:50:50.254Z,1.50
2023-01-30T01:51:47.992Z,1.60
2023-01-30T01:52:47.847Z,1.50
2023-01-30T01:53:47.775Z,1.50
2023-01-30T01:54:47.791Z,1.50
2023-01-30T01:55:49.194Z,1.80
2023-01-30T01:56:47.799Z,2.70
2023-01-30T01:57:47.792Z,2.90
2023-01-30T01:58:47.743Z,3.30
2023-01-30T01:59:47.691Z,3.20
2023-01-30T02:00:50.203Z,2.80
2023-01-30T02:01:49.520Z,2.80
2023-01-30T02:02:49.806Z,3.10
2023-01-30T02:03:47.656Z,3.00
2023-01-30T02:04:47.681Z,2.90
2023-01-30T02:05:47.630Z,2.90
2023-01-30T02:06:48.472Z,2.70
2023-01-30T02:07:47.665Z,3.00
2023-01-30T02:08:48.216Z,2.70
2023-01-30T02:09:47.641Z,2.60
2023-01-30T02:10:47.594Z,2.60
2023-01-30T02:11:48.425Z,2.60
2023-01-30T02:12:47.627Z,2.50
2023-01-30T02:13:48.153Z,2.60
2023-01-30T02:14:47.553Z,2.70
2023-01-30T02:15:47.603Z,2.50
2023-01-30T02:16:47.565Z,2.70
2023-01-30T02:17:48.155Z,3.00
2023-01-30T02:18:47.516Z,2.90
2023-01-30T02:19:47.509Z,3.40
2023-01-30T02:20:47.507Z,3.60
2023-01-30T02:21:47.537Z,3.30
2023-01-30T02:22:47.515Z,3.80
2023-01-30T02:23:47.456Z,4.00
2023-01-30T02:24:47.456Z,4.40
2023-01-30T02:25:49.121Z,4.10
2023-01-30T02:26:47.447Z,4.10
2023-01-30T02:27:47.447Z,4.80
2023-01-30T02:28:47.406Z,4.00
2023-01-30T02:30:08.474Z,4.10
2023-01-30T02:30:47.443Z,4.00
2023-01-30T02:31:47.416Z,3.70
2023-01-30T02:32:48.145Z,3.90
2023-01-30T02:33:47.334Z,3.70
2023-01-30T02:34:48.521Z,3.60
2023-01-30T02:35:47.353Z,3.50
2023-01-30T02:36:47.311Z,3.40
2023-01-30T02:37:47.306Z,3.50
2023-01-30T02:38:47.869Z,3.50
2023-01-30T02:39:48.466Z,3.40
2023-01-30T02:40:47.235Z,3.50
2023-01-30T02:41:47.257Z,3.40
2023-01-30T02:42:47.229Z,3.00
2023-01-30T02:43:47.245Z,3.20
2023-01-30T02:44:48.141Z,3.00
2023-01-30T02:45:47.892Z,3.10
2023-01-30T02:46:48.135Z,3.00
2023-01-30T02:47:47.242Z,2.90
2023-01-30T02:48:47.208Z,3.00
2023-01-30T02:49:47.169Z,2.90
2023-01-30T02:50:47.128Z,3.00
2023-01-30T02:51:47.157Z,2.50
2023-01-30T02:53:09.532Z,2.40
2023-01-30T02:54:52.443Z,2.90
2023-01-30T02:55:24.106Z,2.20
2023-01-30T02:57:30.428Z,1.90
2023-01-30T02:58:31.431Z,1.90
2023-01-30T02:59:31.398Z,1.90
2023-01-30T03:00:31.454Z,1.80
2023-01-30T03:01:31.403Z,1.70
2023-01-30T03:02:31.482Z,1.80
2023-01-30T03:03:31.393Z,1.50
2023-01-30T03:04:31.375Z,1.50
2023-01-30T03:05:31.398Z,1.50
2023-01-30T03:06:31.466Z,1.30
2023-01-30T03:07:31.290Z,1.50
2023-01-30T03:08:32.182Z,1.30
2023-01-30T03:09:31.345Z,1.30
2023-01-30T03:10:31.281Z,1.10
2023-01-30T03:13:19.896Z,1.30
2023-01-30T03:14:57.392Z,1.10
2023-01-30T03:20:18.774Z,1.30
2023-01-30T03:20:58.795Z,1.00
2023-01-30T03:21:58.811Z,1.00
2023-01-30T03:22:59.589Z,1.10
2023-01-30T03:23:58.734Z,1.10
2023-01-30T03:24:59.400Z,1.10
2023-01-30T03:25:58.715Z,1.10
2023-01-30T03:26:58.724Z,1.60
2023-01-30T03:27:59.389Z,1.40
2023-01-30T03:28:58.702Z,1.30
2023-01-30T03:29:58.657Z,1.30
2023-01-30T03:32:43.360Z,1.50
2023-01-30T03:33:43.877Z,1.40
2023-01-30T03:34:43.925Z,1.40
2023-01-30T03:35:43.970Z,1.10
2023-01-30T03:36:43.810Z,1.20
2023-01-30T03:37:44.588Z,1.10
2023-01-30T03:38:43.787Z,0.90
2023-01-30T03:39:43.798Z,1.00
2023-01-30T03:40:44.635Z,1.20
2023-01-30T03:41:43.794Z,1.30
2023-01-30T03:42:43.751Z,1.20
2023-01-30T03:43:43.830Z,1.40
2023-01-30T03:44:43.743Z,1.10
2023-01-30T03:45:44.527Z,1.00
2023-01-30T03:46:44.492Z,1.20
2023-01-30T03:47:43.706Z,1.00
2023-01-30T03:48:43.691Z,1.20
2023-01-30T03:49:43.694Z,1.10
2023-01-30T03:50:44.573Z,1.10
2023-01-30T03:51:43.665Z,1.30
2023-01-30T03:52:43.692Z,1.10
2023-01-30T03:53:43.630Z,1.30
2023-01-30T03:54:43.591Z,1.30
2023-01-30T03:55:43.624Z,1.40
2023-01-30T03:56:43.561Z,1.20
2023-01-30T03:57:45.076Z,1.00
2023-01-30T03:58:43.584Z,1.30
2023-01-30T03:59:43.605Z,1.00
2023-01-30T04:00:45.628Z,1.10
2023-01-30T04:01:43.531Z,1.20
2023-01-30T04:02:44.168Z,1.20
2023-01-30T04:03:44.379Z,1.40
2023-01-30T04:04:44.082Z,1.20
2023-01-30T04:05:44.332Z,1.10
2023-01-30T04:06:43.426Z,1.30
2023-01-30T04:07:43.482Z,1.20
2023-01-30T04:08:43.419Z,1.40
2023-01-30T04:09:44.334Z,1.30
2023-01-30T04:10:43.468Z,1.40
2023-01-30T04:11:43.431Z,1.50
2023-01-30T04:12:43.390Z,1.60
2023-01-30T04:13:43.406Z,1.40
2023-01-30T04:14:43.341Z,1.70
2023-01-30T04:15:43.412Z,1.50
2023-01-30T04:16:43.371Z,1.50
2023-01-30T04:17:43.369Z,1.60
2023-01-30T04:18:44.060Z,1.40
2023-01-30T04:19:43.916Z,1.40
2023-01-30T04:20:43.329Z,1.50
2023-01-30T04:21:43.300Z,1.40
2023-01-30T04:22:43.256Z,1.30
2023-01-30T04:23:43.287Z,1.40
2023-01-30T04:24:43.974Z,1.10
2023-01-30T04:25:44.907Z,1.40
2023-01-30T04:26:43.976Z,1.50
2023-01-30T04:27:43.299Z,1.30
2023-01-30T04:28:43.194Z,1.30
2023-01-30T04:29:43.209Z,1.40
2023-01-30T04:33:42.368Z,1.30
2023-01-30T04:34:43.326Z,1.40
2023-01-30T04:35:45.013Z,1.40
2023-01-30T04:36:43.347Z,1.70
2023-01-30T04:37:43.982Z,1.40
2023-01-30T04:38:43.275Z,1.70
2023-01-30T04:39:43.290Z,2.70
2023-01-30T04:41:05.317Z,2.20
2023-01-30T04:41:47.796Z,1.70
2023-01-30T04:42:43.270Z,2.00
2023-01-30T04:43:43.213Z,2.30
2023-01-30T04:44:43.281Z,2.60
2023-01-30T04:45:43.190Z,2.10
2023-01-30T04:46:43.228Z,2.30
2023-01-30T04:47:43.211Z,2.30
2023-01-30T04:48:43.883Z,1.90
2023-01-30T04:49:43.139Z,1.90
2023-01-30T04:50:43.174Z,1.80
2023-01-30T04:51:43.161Z,2.20
2023-01-30T04:52:43.155Z,1.80
2023-01-30T04:53:43.094Z,1.60
2023-01-30T04:54:43.877Z,1.50
2023-01-30T04:55:43.089Z,1.70
2023-01-30T04:56:43.790Z,1.80
2023-01-30T04:57:43.055Z,1.80
2023-01-30T04:58:43.094Z,2.00
2023-01-30T04:59:43.871Z,2.10
2023-01-30T05:00:43.106Z,2.30
2023-01-30T05:01:43.045Z,2.20
2023-01-30T05:02:43.966Z,2.40
2023-01-30T05:03:42.993Z,2.30
2023-01-30T05:04:43.045Z,2.30
2023-01-30T05:05:43.003Z,2.30
2023-01-30T05:08:44.757Z,2.30
2023-01-30T05:09:45.446Z,1.90
2023-01-30T05:10:45.003Z,2.10
2023-01-30T05:11:44.027Z,2.10
2023-01-30T05:12:44.067Z,1.90
2023-01-30T05:13:46.199Z,1.80
2023-01-30T05:14:45.124Z,2.20
2023-01-30T05:15:45.815Z,1.90
2023-01-30T05:16:47.073Z,1.90
2023-01-30T05:17:46.975Z,2.40
2023-01-30T05:18:43.904Z,2.40
2023-01-30T05:19:43.963Z,2.40
2023-01-30T05:20:43.891Z,3.20
2023-01-30T05:21:43.871Z,2.90
2023-01-30T05:22:43.929Z,2.50
2023-01-30T05:23:43.841Z,2.30
2023-01-30T05:24:54.924Z,2.20
2023-01-30T05:25:52.963Z,2.10
2023-01-30T05:27:00.516Z,1.90
2023-01-30T05:28:23.734Z,2.00
2023-01-30T05:28:59.598Z,1.40
2023-01-30T05:29:44.444Z,1.40
2023-01-30T05:30:45.596Z,1.50
2023-01-30T05:31:43.883Z,1.40
2023-01-30T05:32:43.713Z,1.60
2023-01-30T05:33:45.688Z,1.40
2023-01-30T05:34:43.803Z,1.20
2023-01-30T05:35:43.829Z,1.20
2023-01-30T05:36:43.694Z,1.40
2023-01-30T05:37:43.681Z,1.50
2023-01-30T05:38:44.325Z,1.50
2023-01-30T05:39:44.261Z,1.70
2023-01-30T05:40:44.367Z,1.40
2023-01-30T05:41:43.654Z,1.40
2023-01-30T05:42:43.620Z,1.40
2023-01-30T05:43:43.572Z,1.50
2023-01-30T05:44:43.603Z,1.30
2023-01-30T05:45:43.596Z,1.20
2023-01-30T05:46:43.600Z,1.40
2023-01-30T05:47:43.533Z,1.20
2023-01-30T05:48:43.604Z,1.40
2023-01-30T05:49:43.503Z,1.40
2023-01-30T05:50:44.910Z,1.30
2023-01-30T05:51:43.483Z,1.60
2023-01-30T05:52:43.475Z,1.40
2023-01-30T05:53:43.448Z,1.60
2023-01-30T05:54:43.528Z,1.20
2023-01-30T05:55:44.628Z,1.50
2023-01-30T05:56:43.469Z,1.90
2023-01-30T05:57:43.391Z,1.60
2023-01-30T05:58:43.491Z,1.70
2023-01-30T05:59:43.427Z,1.90
2023-01-30T06:01:02.639Z,1.90
2023-01-30T06:01:43.390Z,1.80
2023-01-30T06:02:43.468Z,2.30
2023-01-30T06:03:43.430Z,2.00
2023-01-30T06:04:43.370Z,1.80
2023-01-30T06:05:43.310Z,2.60
2023-01-30T06:06:43.332Z,3.30
2023-01-30T06:07:43.286Z,5.20
2023-01-30T06:08:43.295Z,4.30
2023-01-30T06:09:43.311Z,3.20
2023-01-30T06:10:43.813Z,4.10
2023-01-30T06:11:43.248Z,3.80
2023-01-30T06:13:04.312Z,2.90
2023-01-30T06:13:43.222Z,2.70
2023-01-30T06:14:43.236Z,2.70
2023-01-30T06:15:43.297Z,2.80
2023-01-30T06:16:43.256Z,2.00
2023-01-30T06:17:43.177Z,1.80
2023-01-30T06:18:43.245Z,2.00
2023-01-30T06:19:43.237Z,1.80
2023-01-30T06:20:43.175Z,1.80
2023-01-30T06:21:43.975Z,1.90
2023-01-30T06:22:43.142Z,1.70
2023-01-30T06:23:43.113Z,1.80
2023-01-30T06:24:43.142Z,1.80
2023-01-30T06:25:43.093Z,2.30
2023-01-30T06:26:43.137Z,2.80
2023-01-30T06:27:43.078Z,3.30
2023-01-30T06:28:44.836Z,2.50
2023-01-30T06:29:43.083Z,2.90
2023-01-30T06:30:43.116Z,2.20
2023-01-30T06:31:43.149Z,2.10
2023-01-30T06:32:43.641Z,2.50
2023-01-30T06:33:43.013Z,2.00
2023-01-30T06:34:43.003Z,1.70
2023-01-30T06:35:43.019Z,1.70
2023-01-30T06:36:43.045Z,1.70
2023-01-30T06:37:43.598Z,1.60
2023-01-30T06:38:42.961Z,1.40
2023-01-30T06:39:44.175Z,1.60
2023-01-30T06:40:44.190Z,1.60
2023-01-30T06:41:42.954Z,1.50
2023-01-30T06:42:44.690Z,1.40
2023-01-30T06:43:42.900Z,1.50
2023-01-30T06:44:42.898Z,1.50
2023-01-30T06:45:42.884Z,1.80
2023-01-30T06:46:42.887Z,1.60
2023-01-30T06:47:45.458Z,1.50
2023-01-30T06:48:42.913Z,1.60
2023-01-30T06:49:42.828Z,1.50
2023-01-30T06:50:42.840Z,1.60
2023-01-30T06:51:42.796Z,1.60
2023-01-30T06:52:42.826Z,1.40
2023-01-30T06:53:42.804Z,1.50
2023-01-30T06:54:42.858Z,1.50
2023-01-30T06:55:52.332Z,1.50
2023-01-30T06:56:42.796Z,1.80
2023-01-30T06:57:42.726Z,1.80
2023-01-30T06:58:42.742Z,1.60
2023-01-30T06:59:42.720Z,1.70
2023-01-30T07:01:28.893Z,1.90
2023-01-30T07:01:42.740Z,1.50
2023-01-30T07:02:42.704Z,1.40
2023-01-30T07:03:43.506Z,1.80
2023-01-30T07:04:42.700Z,1.80
2023-01-30T07:05:42.632Z,1.70
2023-01-30T07:06:42.731Z,1.80
2023-01-30T07:07:42.675Z,1.50
2023-01-30T07:08:42.629Z,1.60
2023-01-30T07:09:42.592Z,1.60
2023-01-30T07:10:43.356Z,1.70
2023-01-30T07:12:12.414Z,1.50
2023-01-30T07:12:42.548Z,1.50
2023-01-30T07:13:42.567Z,1.60
2023-01-30T07:21:58.469Z,1.80
2023-01-30T07:22:38.799Z,1.80
2023-01-30T07:23:37.999Z,2.00
2023-01-30T07:24:37.866Z,1.80
2023-01-30T07:25:37.860Z,1.70
2023-01-30T07:26:37.953Z,1.80
2023-01-30T07:27:37.835Z,1.60
2023-01-30T07:28:37.923Z,1.70
2023-01-30T07:29:37.820Z,2.00
2023-01-30T07:30:37.819Z,1.30
2023-01-30T07:31:37.801Z,1.60
2023-01-30T07:32:37.794Z,1.80
2023-01-30T07:33:37.803Z,1.50
2023-01-30T07:34:37.791Z,1.50
2023-01-30T07:35:37.727Z,1.70
2023-01-30T07:36:37.756Z,1.80
2023-01-30T07:39:14.351Z,1.80
2023-01-30T07:40:16.104Z,2.00
2023-01-30T07:41:15.315Z,1.90
2023-01-30T07:42:15.950Z,1.60
2023-01-30T07:43:15.289Z,1.60
2023-01-30T07:44:16.943Z,1.90
2023-01-30T07:45:16.336Z,1.70
2023-01-30T07:46:15.928Z,1.60
2023-01-30T07:47:15.299Z,2.00
2023-01-30T07:48:15.243Z,1.80
2023-01-30T07:49:15.201Z,1.70
2023-01-30T07:50:15.253Z,1.70
2023-01-30T07:51:15.244Z,1.90
2023-01-30T07:52:15.200Z,1.80
2023-01-30T07:53:15.159Z,1.70
2023-01-30T07:54:15.230Z,2.00
2023-01-30T07:55:15.137Z,2.10
2023-01-30T07:56:16.613Z,2.00
2023-01-30T07:57:15.883Z,1.70
2023-01-30T07:58:15.232Z,1.80
2023-01-30T07:59:15.102Z,1.80
2023-01-30T08:00:15.172Z,1.80
2023-01-30T08:01:15.159Z,1.90
2023-01-30T08:02:17.163Z,1.90
2023-01-30T08:03:28.207Z,1.80
2023-01-30T08:04:17.145Z,1.90
2023-01-30T08:05:15.040Z,1.70
2023-01-30T08:06:15.047Z,1.80
2023-01-30T08:07:15.025Z,2.10
2023-01-30T08:08:15.100Z,1.80
2023-01-30T08:09:15.634Z,1.80
2023-01-30T08:10:16.392Z,2.00
2023-01-30T08:11:14.980Z,1.90
2023-01-30T08:12:15.000Z,2.00
2023-01-30T08:13:15.199Z,2.00
2023-01-30T08:14:14.968Z,2.00
2023-01-30T08:15:14.938Z,2.00
2023-01-30T08:16:14.991Z,2.00
2023-01-30T08:17:14.910Z,1.90
2023-01-30T08:18:15.573Z,2.10
2023-01-30T08:19:14.908Z,2.20
2023-01-30T08:20:14.921Z,2.30
2023-01-30T08:21:14.933Z,2.20
2023-01-30T08:22:15.449Z,2.10
2023-01-30T08:23:14.840Z,1.80
2023-01-30T08:24:14.877Z,2.20
2023-01-30T08:25:15.470Z,2.10
2023-01-30T08:26:14.940Z,2.30
2023-01-30T08:27:14.789Z,2.30
2023-01-30T08:28:14.808Z,2.40
2023-01-30T08:29:14.776Z,2.30
2023-01-30T08:30:14.799Z,2.20
2023-01-30T08:31:15.489Z,2.00
2023-01-30T08:32:15.895Z,2.10
2023-01-30T08:33:14.718Z,1.90
2023-01-30T08:34:14.725Z,2.20
2023-01-30T08:35:15.414Z,2.00
2023-01-30T08:36:14.732Z,2.00
2023-01-30T08:37:15.497Z,1.90
2023-01-30T08:38:15.462Z,2.10
2023-01-30T08:39:14.636Z,2.00
2023-01-30T08:40:14.653Z,2.10
2023-01-30T08:41:14.620Z,2.10
2023-01-30T08:42:14.660Z,1.90
2023-01-30T08:43:14.648Z,2.10
2023-01-30T08:44:14.645Z,1.90
2023-01-30T08:45:14.688Z,1.90
2023-01-30T08:46:14.647Z,1.90
2023-01-30T08:47:14.582Z,2.10
2023-01-30T08:48:14.656Z,2.10
2023-01-30T08:49:14.608Z,1.70
2023-01-30T08:50:14.593Z,2.00
2023-01-30T08:51:14.516Z,2.10
2023-01-30T08:52:14.537Z,2.20
2023-01-30T08:53:14.499Z,2.30
2023-01-30T08:54:14.495Z,2.00
2023-01-30T08:55:14.717Z,2.30
2023-01-30T08:56:14.507Z,2.00
2023-01-30T08:57:14.445Z,2.00
2023-01-30T08:58:15.158Z,2.00
2023-01-30T08:59:14.428Z,1.90
2023-01-30T09:00:14.543Z,2.10
2023-01-30T09:01:14.489Z,1.70
2023-01-30T09:02:14.445Z,2.00
2023-01-30T09:03:14.379Z,1.90
2023-01-30T09:04:15.126Z,1.90
2023-01-30T09:05:14.397Z,2.20
2023-01-30T09:06:14.415Z,1.90
2023-01-30T09:07:15.377Z,1.90
2023-01-30T09:08:15.207Z,2.00
2023-01-30T09:09:14.323Z,2.10
2023-01-30T09:10:14.343Z,1.90
2023-01-30T09:11:14.312Z,1.90
2023-01-30T09:12:15.012Z,1.90
2023-01-30T09:13:14.291Z,1.90
2023-01-30T09:14:14.277Z,2.00
2023-01-30T09:15:14.251Z,2.10
2023-01-30T09:16:14.992Z,1.90
2023-01-30T09:17:14.264Z,1.80
2023-01-30T09:18:14.254Z,2.10
2023-01-30T09:19:14.262Z,2.10
2023-01-30T09:20:14.315Z,1.90
2023-01-30T09:21:14.247Z,1.80
2023-01-30T09:22:14.188Z,1.90
2023-01-30T09:23:14.167Z,1.90
2023-01-30T09:24:15.084Z,2.10
2023-01-30T09:25:14.156Z,2.20
2023-01-30T09:26:14.196Z,2.50
2023-01-30T09:27:14.910Z,2.10
2023-01-30T09:28:14.131Z,2.20
2023-01-30T09:29:14.105Z,2.50
2023-01-30T09:30:14.107Z,2.20
2023-01-30T09:31:15.210Z,2.30
2023-01-30T09:32:14.071Z,2.20
2023-01-30T09:33:14.056Z,2.60
2023-01-30T09:34:14.084Z,2.20
2023-01-30T09:35:14.925Z,2.50
2023-01-30T09:36:14.071Z,2.50
2023-01-30T09:37:14.027Z,2.50
2023-01-30T09:38:14.011Z,2.10
2023-01-30T09:39:13.986Z,2.60
2023-01-30T09:40:14.980Z,2.80
2023-01-30T09:41:14.004Z,3.00
2023-01-30T09:42:13.998Z,2.90
2023-01-30T09:43:13.982Z,2.90
2023-01-30T09:44:13.994Z,3.10
2023-01-30T09:45:13.979Z,3.00
2023-01-30T09:46:16.049Z,2.70
2023-01-30T09:47:13.905Z,2.80
2023-01-30T09:48:13.946Z,2.90
2023-01-30T09:49:13.899Z,3.00
2023-01-30T09:50:15.076Z,3.20
2023-01-30T09:51:13.885Z,3.10
2023-01-30T09:52:14.468Z,3.10
2023-01-30T09:53:13.834Z,3.20
2023-01-30T09:54:14.466Z,3.10
2023-01-30T09:55:13.831Z,3.30
2023-01-30T09:56:13.830Z,3.30
2023-01-30T09:57:21.605Z,3.40
2023-01-30T09:58:13.801Z,3.70
2023-01-30T09:59:14.458Z,3.60
2023-01-30T10:00:13.842Z,3.70
2023-01-30T14:10:11.771Z,1.50
2023-01-30T14:11:13.099Z,1.30
2023-01-30T14:12:14.089Z,1.70
2023-01-30T14:13:12.406Z,1.60
2023-01-30T14:14:12.409Z,1.90
2023-01-30T14:15:12.684Z,1.80
2023-01-30T14:16:12.411Z,1.70
2023-01-30T14:17:12.387Z,1.50
2023-01-30T14:18:13.336Z,1.80
2023-01-30T14:19:12.361Z,1.60
2023-01-30T14:20:12.346Z,1.40
2023-01-30T14:21:12.377Z,1.40
2023-01-30T14:22:12.483Z,1.50
2023-01-30T14:23:15.074Z,1.30
2023-01-30T14:24:12.325Z,1.40
2023-01-30T14:25:12.320Z,1.30
2023-01-30T14:26:12.291Z,1.30
2023-01-30T14:27:13.012Z,1.20
2023-01-30T14:28:12.872Z,1.20
2023-01-30T14:29:14.048Z,1.40
2023-01-30T14:30:12.251Z,1.20
2023-01-30T14:31:12.993Z,1.20
2023-01-30T14:32:13.173Z,1.40
2023-01-30T14:33:13.197Z,1.20
2023-01-30T14:34:12.187Z,1.30
2023-01-30T14:35:12.871Z,1.40
2023-01-30T14:36:12.805Z,1.30
2023-01-30T14:37:12.166Z,1.30
2023-01-30T14:38:12.257Z,1.60
2023-01-30T14:39:12.209Z,1.50
2023-01-30T14:40:26.653Z,1.20
2023-01-30T14:41:12.194Z,1.20
2023-01-30T14:42:12.848Z,0.80
2023-01-30T14:43:13.376Z,0.80
2023-01-30T14:44:12.148Z,0.90
2023-01-30T14:45:12.118Z,0.90
2023-01-30T14:46:14.594Z,1.00
2023-01-30T14:47:34.517Z,1.00
2023-01-30T14:48:12.452Z,1.00
2023-01-30T14:49:12.033Z,1.00
2023-01-30T14:50:12.645Z,1.40
2023-01-30T14:51:13.869Z,1.10
2023-01-30T14:52:14.585Z,0.90
2023-01-30T14:53:12.701Z,1.00
2023-01-30T14:54:13.553Z,1.00
2023-01-30T14:55:11.961Z,1.20
2023-01-30T14:56:11.936Z,1.00
2023-01-30T14:57:11.925Z,0.90
2023-01-30T14:58:11.927Z,1.10
2023-01-30T14:59:12.997Z,1.00
2023-01-30T15:00:17.056Z,1.10
2023-01-30T15:01:11.975Z,1.30
2023-01-30T15:02:12.510Z,1.10
2023-01-30T15:03:11.950Z,1.10
2023-01-30T15:04:15.491Z,1.30
2023-01-30T15:05:11.917Z,1.20
2023-01-30T15:06:13.374Z,1.20
2023-01-30T15:07:13.142Z,1.00
2023-01-30T15:08:14.631Z,1.10
2023-01-30T15:09:13.623Z,1.00
2023-01-30T15:10:11.869Z,1.00
2023-01-30T15:11:12.079Z,1.20
2023-01-30T15:12:11.747Z,1.20
2023-01-30T15:13:12.585Z,1.30
2023-01-30T15:14:12.624Z,1.30
2023-01-30T15:15:11.799Z,1.10
2023-01-30T15:16:11.769Z,1.10
2023-01-30T15:17:11.718Z,1.40
2023-01-30T15:18:12.397Z,1.10
2023-01-30T15:19:14.397Z,1.20
2023-01-30T15:20:11.687Z,1.10
2023-01-30T15:21:11.689Z,1.10
2023-01-30T15:22:11.639Z,1.10
2023-01-30T15:23:12.853Z,1.20
2023-01-30T15:24:13.143Z,1.20
2023-01-30T15:25:11.622Z,1.30
2023-01-30T15:26:12.434Z,1.30
2023-01-30T15:27:12.336Z,1.10
2023-01-30T15:28:11.565Z,1.20
2023-01-30T15:29:11.579Z,1.30
2023-01-30T15:30:11.576Z,1.60
2023-01-30T15:31:26.156Z,1.10
2023-01-30T15:32:11.525Z,1.30
2023-01-30T15:33:14.014Z,1.20
2023-01-30T15:34:12.483Z,1.30
2023-01-30T15:35:13.714Z,1.20
2023-01-30T15:36:12.212Z,1.10
2023-01-30T15:37:12.227Z,1.30
2023-01-30T15:38:11.456Z,1.60
2023-01-30T15:39:11.865Z,1.60
2023-01-30T15:40:13.749Z,1.50
2023-01-30T15:41:12.269Z,1.60
2023-01-30T15:42:11.426Z,1.70
2023-01-30T15:43:11.479Z,1.40
2023-01-30T15:44:13.868Z,1.40
2023-01-30T15:45:12.984Z,1.60
2023-01-30T15:46:11.542Z,1.30
2023-01-30T15:47:11.376Z,1.60
2023-01-30T15:48:11.345Z,1.40
2023-01-30T15:49:11.447Z,1.40
2023-01-30T15:50:12.120Z,1.30
2023-01-30T15:51:11.333Z,1.30
2023-01-30T15:52:11.303Z,1.20
2023-01-30T15:53:11.312Z,1.30
2023-01-30T15:54:15.630Z,1.30
2023-01-30T15:55:11.323Z,1.10
2023-01-30T15:56:11.349Z,1.20
2023-01-30T15:57:11.318Z,1.10
2023-01-30T15:58:11.237Z,1.20
2023-01-30T15:59:11.264Z,1.00
2023-01-30T16:00:11.232Z,1.10
2023-01-30T16:01:11.292Z,1.10
2023-01-30T16:02:11.954Z,1.10
2023-01-30T16:03:11.206Z,0.90
2023-01-30T16:04:11.192Z,0.90
2023-01-30T16:05:11.239Z,1.20
2023-01-30T16:06:11.239Z,0.90
2023-01-30T16:07:11.153Z,1.20
2023-01-30T16:08:11.909Z,1.00
2023-01-30T16:09:11.159Z,0.80
2023-01-30T16:10:11.132Z,1.00
2023-01-30T16:11:11.153Z,0.90
2023-01-30T16:12:11.120Z,0.80
2023-01-30T16:13:11.940Z,1.20
2023-01-30T16:14:11.106Z,0.80
2023-01-30T16:15:19.336Z,1.00
2023-01-30T16:16:11.154Z,0.80
2023-01-30T16:17:11.304Z,0.80
2023-01-30T16:18:11.790Z,0.70
2023-01-30T16:19:11.545Z,0.70
2023-01-30T16:20:11.421Z,0.90
2023-01-30T16:21:11.358Z,0.80
2023-01-30T16:22:13.054Z,0.60
2023-01-30T16:23:10.976Z,0.70
2023-01-30T16:24:10.977Z,0.80
2023-01-30T16:25:19.982Z,0.90
2023-01-30T16:26:11.022Z,1.20
2023-01-30T16:27:11.004Z,0.70
2023-01-30T16:28:10.969Z,0.90
2023-01-30T16:29:10.910Z,0.80
2023-01-30T16:30:10.921Z,0.70
2023-01-30T16:31:11.153Z,0.80
2023-01-30T16:32:11.568Z,0.70
2023-01-30T16:33:10.897Z,0.70
2023-01-30T16:34:10.944Z,0.70
2023-01-30T16:35:10.833Z,0.60
2023-01-30T16:36:10.838Z,0.50
2023-01-30T16:37:11.521Z,0.70
2023-01-30T16:38:10.822Z,0.60
2023-01-30T16:39:11.438Z,0.80
2023-01-30T16:40:10.822Z,0.90
2023-01-30T16:41:10.766Z,0.60
2023-01-30T16:42:11.476Z,0.60
2023-01-30T16:43:10.845Z,0.60
